sensor_id;sensor_type;location;lat;lon;timestamp;P1;durP1;ratioP1;P2;durP2;ratioP2
41167;SDS011;26906;45.658;9.272;2023-09-08T05:39:30;13.65;;;8.68;;
41167;SDS011;26906;45.658;9.272;2023-09-08T05:41:57;12.95;;;8.88;;
41167;SDS011;26906;45.658;9.272;2023-09-08T05:44:23;13.70;;;8.85;;
41167;SDS011;26906;45.658;9.272;2023-09-08T05:46:51;11.18;;;8.15;;
41167;SDS011;26906;45.658;9.272;2023-09-08T05:49:16;9.63;;;8.25;;
41167;SDS011;26906;45.658;9.272;2023-09-08T05:51:43;10.95;;;8.20;;
41167;SDS011;26906;45.658;9.272;2023-09-08T05:54:09;12.23;;;7.75;;
41167;SDS011;26906;45.658;9.272;2023-09-08T05:56:37;11.30;;;8.88;;
41167;SDS011;26906;45.658;9.272;2023-09-08T05:59:03;10.07;;;8.13;;
41167;SDS011;26906;45.658;9.272;2023-09-08T06:01:32;10.55;;;8.23;;
41167;SDS011;26906;45.658;9.272;2023-09-08T06:04:00;14.63;;;9.15;;
41167;SDS011;26906;45.658;9.272;2023-09-08T06:06:29;14.02;;;9.68;;
41167;SDS011;26906;45.658;9.272;2023-09-08T06:08:56;15.77;;;9.15;;
41167;SDS011;26906;45.658;9.272;2023-09-08T06:11:22;12.63;;;9.30;;
41167;SDS011;26906;45.658;9.272;2023-09-08T06:13:49;15.98;;;9.40;;
41167;SDS011;26906;45.658;9.272;2023-09-08T06:16:15;12.05;;;8.70;;
41167;SDS011;26906;45.658;9.272;2023-09-08T06:18:40;13.80;;;9.50;;
41167;SDS011;26906;45.658;9.272;2023-09-08T06:21:09;15.43;;;9.15;;
41167;SDS011;26906;45.658;9.272;2023-09-08T06:23:35;12.93;;;9.00;;
41167;SDS011;26906;45.658;9.272;2023-09-08T06:26:03;15.80;;;9.70;;
41167;SDS011;26906;45.658;9.272;2023-09-08T06:28:31;15.70;;;8.88;;
41167;SDS011;26906;45.658;9.272;2023-09-08T06:30:57;11.60;;;8.52;;
41167;SDS011;26906;45.658;9.272;2023-09-08T06:33:23;11.18;;;8.48;;
41167;SDS011;26906;45.658;9.272;2023-09-08T06:35:49;10.50;;;7.95;;
41167;SDS011;26906;45.658;9.272;2023-09-08T06:38:15;16.70;;;9.68;;
41167;SDS011;26906;45.658;9.272;2023-09-08T06:40:41;18.00;;;8.68;;
41167;SDS011;26906;45.658;9.272;2023-09-08T06:43:07;14.75;;;9.10;;
41167;SDS011;26906;45.658;9.272;2023-09-08T06:45:54;18.85;;;9.98;;
41167;SDS011;26906;45.658;9.272;2023-09-08T06:48:22;17.50;;;8.65;;
41167;SDS011;26906;45.658;9.272;2023-09-08T06:50:48;13.93;;;9.30;;
41167;SDS011;26906;45.658;9.272;2023-09-08T06:53:14;18.92;;;9.40;;
41167;SDS011;26906;45.658;9.272;2023-09-08T06:55:41;14.55;;;8.80;;
41167;SDS011;26906;45.658;9.272;2023-09-08T06:58:07;16.63;;;8.57;;
41167;SDS011;26906;45.658;9.272;2023-09-08T07:00:34;11.95;;;8.57;;
41167;SDS011;26906;45.658;9.272;2023-09-08T07:03:02;14.00;;;8.60;;
41167;SDS011;26906;45.658;9.272;2023-09-08T07:05:28;13.95;;;8.77;;
41167;SDS011;26906;45.658;9.272;2023-09-08T07:07:54;15.48;;;8.02;;
41167;SDS011;26906;45.658;9.272;2023-09-08T07:10:20;16.60;;;8.32;;
41167;SDS011;26906;45.658;9.272;2023-09-08T07:12:47;10.07;;;8.52;;
41167;SDS011;26906;45.658;9.272;2023-09-08T07:15:15;12.95;;;8.45;;
41167;SDS011;26906;45.658;9.272;2023-09-08T07:17:41;16.83;;;7.95;;
41167;SDS011;26906;45.658;9.272;2023-09-08T07:20:09;16.92;;;7.90;;
41167;SDS011;26906;45.658;9.272;2023-09-08T07:22:37;10.75;;;6.72;;
41167;SDS011;26906;45.658;9.272;2023-09-08T07:25:03;15.85;;;7.10;;
41167;SDS011;26906;45.658;9.272;2023-09-08T07:27:31;14.65;;;7.28;;
41167;SDS011;26906;45.658;9.272;2023-09-08T07:29:56;14.25;;;8.15;;
41167;SDS011;26906;45.658;9.272;2023-09-08T07:32:22;7.93;;;6.43;;
41167;SDS011;26906;45.658;9.272;2023-09-08T07:34:50;16.27;;;6.25;;
41167;SDS011;26906;45.658;9.272;2023-09-08T07:37:21;9.07;;;5.18;;
41167;SDS011;26906;45.658;9.272;2023-09-08T07:39:47;12.82;;;4.55;;
41167;SDS011;26906;45.658;9.272;2023-09-08T07:42:14;8.43;;;4.50;;
41167;SDS011;26906;45.658;9.272;2023-09-08T07:44:40;7.43;;;4.40;;
41167;SDS011;26906;45.658;9.272;2023-09-08T07:47:05;8.60;;;4.22;;
41167;SDS011;26906;45.658;9.272;2023-09-08T07:49:33;7.85;;;3.67;;
41167;SDS011;26906;45.658;9.272;2023-09-08T07:51:59;8.38;;;3.50;;
41167;SDS011;26906;45.658;9.272;2023-09-08T07:54:25;8.82;;;3.85;;
41167;SDS011;26906;45.658;9.272;2023-09-08T07:56:51;6.05;;;3.55;;
41167;SDS011;26906;45.658;9.272;2023-09-08T07:59:16;7.43;;;3.50;;
41167;SDS011;26906;45.658;9.272;2023-09-08T08:01:42;4.13;;;3.72;;
41167;SDS011;26906;45.658;9.272;2023-09-08T08:04:08;9.07;;;3.95;;
41167;SDS011;26906;45.658;9.272;2023-09-08T08:06:34;24.25;;;18.42;;
41167;SDS011;26906;45.658;9.272;2023-09-08T08:09:00;6.40;;;4.40;;
41167;SDS011;26906;45.658;9.272;2023-09-08T08:11:26;6.93;;;4.18;;
41167;SDS011;26906;45.658;9.272;2023-09-08T08:13:53;8.45;;;3.80;;
41167;SDS011;26906;45.658;9.272;2023-09-08T08:16:18;5.00;;;4.20;;
41167;SDS011;26906;45.658;9.272;2023-09-08T08:18:46;8.88;;;4.38;;
41167;SDS011;26906;45.658;9.272;2023-09-08T08:21:12;8.43;;;3.58;;
41167;SDS011;26906;45.658;9.272;2023-09-08T08:23:38;5.68;;;4.30;;
41167;SDS011;26906;45.658;9.272;2023-09-08T08:26:04;6.88;;;3.60;;
41167;SDS011;26906;45.658;9.272;2023-09-08T08:28:29;3.88;;;3.35;;
41167;SDS011;26906;45.658;9.272;2023-09-08T08:30:57;5.03;;;4.20;;
41167;SDS011;26906;45.658;9.272;2023-09-08T08:33:22;9.45;;;3.83;;
41167;SDS011;26906;45.658;9.272;2023-09-08T08:35:51;4.07;;;3.67;;
41167;SDS011;26906;45.658;9.272;2023-09-08T08:38:18;7.55;;;4.15;;
41167;SDS011;26906;45.658;9.272;2023-09-08T08:40:44;7.55;;;3.47;;
41167;SDS011;26906;45.658;9.272;2023-09-08T08:43:10;5.75;;;3.97;;
41167;SDS011;26906;45.658;9.272;2023-09-08T08:45:41;6.88;;;3.65;;
41167;SDS011;26906;45.658;9.272;2023-09-08T08:48:08;6.60;;;3.85;;
41167;SDS011;26906;45.658;9.272;2023-09-08T08:50:35;8.25;;;3.83;;
41167;SDS011;26906;45.658;9.272;2023-09-08T08:53:02;5.13;;;4.22;;
41167;SDS011;26906;45.658;9.272;2023-09-08T08:55:29;6.05;;;4.10;;
41167;SDS011;26906;45.658;9.272;2023-09-08T08:58:00;6.82;;;4.18;;
41167;SDS011;26906;45.658;9.272;2023-09-08T09:00:28;15.52;;;3.95;;
41167;SDS011;26906;45.658;9.272;2023-09-08T09:02:54;7.75;;;4.05;;
41167;SDS011;26906;45.658;9.272;2023-09-08T09:05:24;7.55;;;3.83;;
41167;SDS011;26906;45.658;9.272;2023-09-08T09:07:52;12.85;;;4.03;;
41167;SDS011;26906;45.658;9.272;2023-09-08T09:10:18;6.57;;;3.90;;
41167;SDS011;26906;45.658;9.272;2023-09-08T09:12:45;6.53;;;3.97;;
41167;SDS011;26906;45.658;9.272;2023-09-08T09:15:11;5.93;;;4.00;;
41167;SDS011;26906;45.658;9.272;2023-09-08T09:17:37;4.65;;;4.15;;
41167;SDS011;26906;45.658;9.272;2023-09-08T09:20:16;9.35;;;4.55;;
41167;SDS011;26906;45.658;9.272;2023-09-08T09:22:45;7.53;;;4.25;;
41167;SDS011;26906;45.658;9.272;2023-09-08T09:25:23;4.93;;;3.88;;
41167;SDS011;26906;45.658;9.272;2023-09-08T09:27:51;6.57;;;4.10;;
41167;SDS011;26906;45.658;9.272;2023-09-08T09:30:21;7.72;;;4.78;;
41167;SDS011;26906;45.658;9.272;2023-09-08T09:32:47;5.32;;;4.60;;
41167;SDS011;26906;45.658;9.272;2023-09-08T09:35:44;8.93;;;4.30;;
41167;SDS011;26906;45.658;9.272;2023-09-08T09:38:11;6.10;;;4.20;;
41167;SDS011;26906;45.658;9.272;2023-09-08T09:40:38;5.65;;;4.20;;
41167;SDS011;26906;45.658;9.272;2023-09-08T09:43:04;5.40;;;4.50;;
41167;SDS011;26906;45.658;9.272;2023-09-08T09:45:32;8.75;;;4.20;;
41167;SDS011;26906;45.658;9.272;2023-09-08T09:47:59;7.47;;;4.95;;
41167;SDS011;26906;45.658;9.272;2023-09-08T09:50:28;5.60;;;4.40;;
41167;SDS011;26906;45.658;9.272;2023-09-08T09:53:00;6.38;;;4.25;;
41167;SDS011;26906;45.658;9.272;2023-09-08T09:57:58;7.40;;;4.22;;
41167;SDS011;26906;45.658;9.272;2023-09-08T10:00:27;6.68;;;4.03;;
41167;SDS011;26906;45.658;9.272;2023-09-08T10:02:54;6.82;;;4.47;;
41167;SDS011;26906;45.658;9.272;2023-09-08T10:05:21;6.40;;;4.63;;
41167;SDS011;26906;45.658;9.272;2023-09-08T10:07:47;5.85;;;5.25;;
41167;SDS011;26906;45.658;9.272;2023-09-08T10:10:14;7.18;;;5.35;;
41167;SDS011;26906;45.658;9.272;2023-09-08T10:12:43;8.30;;;4.55;;
41167;SDS011;26906;45.658;9.272;2023-09-08T10:15:12;8.40;;;4.85;;
41167;SDS011;26906;45.658;9.272;2023-09-08T10:17:42;8.65;;;4.97;;
41167;SDS011;26906;45.658;9.272;2023-09-08T10:20:11;7.80;;;4.68;;
41167;SDS011;26906;45.658;9.272;2023-09-08T10:22:38;7.28;;;4.50;;
41167;SDS011;26906;45.658;9.272;2023-09-08T10:25:08;6.90;;;4.07;;
41167;SDS011;26906;45.658;9.272;2023-09-08T10:27:34;7.43;;;4.38;;
41167;SDS011;26906;45.658;9.272;2023-09-08T10:30:03;7.60;;;5.10;;
41167;SDS011;26906;45.658;9.272;2023-09-08T10:32:32;6.45;;;4.68;;
41167;SDS011;26906;45.658;9.272;2023-09-08T10:34:59;7.32;;;4.45;;
41167;SDS011;26906;45.658;9.272;2023-09-08T10:37:26;8.13;;;4.72;;
41167;SDS011;26906;45.658;9.272;2023-09-08T10:39:55;7.03;;;4.85;;
41167;SDS011;26906;45.658;9.272;2023-09-08T10:42:22;7.38;;;4.53;;
41167;SDS011;26906;45.658;9.272;2023-09-08T10:44:58;10.43;;;5.25;;
41167;SDS011;26906;45.658;9.272;2023-09-08T10:47:31;8.63;;;5.78;;
41167;SDS011;26906;45.658;9.272;2023-09-08T10:50:01;10.60;;;5.40;;
41167;SDS011;26906;45.658;9.272;2023-09-08T10:52:28;7.30;;;5.65;;
41167;SDS011;26906;45.658;9.272;2023-09-08T10:54:55;6.88;;;5.38;;
41167;SDS011;26906;45.658;9.272;2023-09-08T10:57:21;9.68;;;5.82;;
41167;SDS011;26906;45.658;9.272;2023-09-08T10:59:52;13.68;;;6.35;;
41167;SDS011;26906;45.658;9.272;2023-09-08T11:02:38;7.32;;;5.57;;
41167;SDS011;26906;45.658;9.272;2023-09-08T11:05:07;9.40;;;5.90;;
41167;SDS011;26906;45.658;9.272;2023-09-08T11:07:37;12.13;;;6.60;;
41167;SDS011;26906;45.658;9.272;2023-09-08T11:10:04;7.43;;;5.45;;
41167;SDS011;26906;45.658;9.272;2023-09-08T11:12:31;8.73;;;5.45;;
41167;SDS011;26906;45.658;9.272;2023-09-08T11:14:57;7.28;;;5.80;;
41167;SDS011;26906;45.658;9.272;2023-09-08T11:17:32;7.22;;;5.57;;
41167;SDS011;26906;45.658;9.272;2023-09-08T11:20:00;6.63;;;5.32;;
41167;SDS011;26906;45.658;9.272;2023-09-08T11:22:28;6.85;;;6.15;;
41167;SDS011;26906;45.658;9.272;2023-09-08T11:24:57;8.27;;;5.57;;
41167;SDS011;26906;45.658;9.272;2023-09-08T11:27:23;8.50;;;5.32;;
41167;SDS011;26906;45.658;9.272;2023-09-08T11:29:53;8.35;;;5.90;;
41167;SDS011;26906;45.658;9.272;2023-09-08T11:32:19;9.93;;;6.22;;
41167;SDS011;26906;45.658;9.272;2023-09-08T11:34:45;11.07;;;6.18;;
41167;SDS011;26906;45.658;9.272;2023-09-08T11:37:11;8.77;;;6.55;;
41167;SDS011;26906;45.658;9.272;2023-09-08T11:39:43;7.18;;;6.20;;
41167;SDS011;26906;45.658;9.272;2023-09-08T11:42:13;7.75;;;6.50;;
41167;SDS011;26906;45.658;9.272;2023-09-08T11:44:40;10.48;;;6.72;;
41167;SDS011;26906;45.658;9.272;2023-09-08T11:47:08;8.75;;;6.68;;
41167;SDS011;26906;45.658;9.272;2023-09-08T11:49:41;10.05;;;7.28;;
41167;SDS011;26906;45.658;9.272;2023-09-08T11:52:09;7.28;;;6.47;;
41167;SDS011;26906;45.658;9.272;2023-09-08T11:54:35;13.38;;;6.47;;
41167;SDS011;26906;45.658;9.272;2023-09-08T11:57:03;9.30;;;6.07;;
41167;SDS011;26906;45.658;9.272;2023-09-08T11:59:33;9.13;;;5.43;;
41167;SDS011;26906;45.658;9.272;2023-09-08T12:02:00;8.82;;;6.30;;
41167;SDS011;26906;45.658;9.272;2023-09-08T12:04:26;8.38;;;6.05;;
41167;SDS011;26906;45.658;9.272;2023-09-08T12:06:53;11.48;;;6.22;;
41167;SDS011;26906;45.658;9.272;2023-09-08T12:09:21;8.90;;;5.78;;
41167;SDS011;26906;45.658;9.272;2023-09-08T12:11:48;10.05;;;6.50;;
41167;SDS011;26906;45.658;9.272;2023-09-08T12:14:14;8.60;;;6.00;;
41167;SDS011;26906;45.658;9.272;2023-09-08T12:16:41;15.73;;;5.78;;
41167;SDS011;26906;45.658;9.272;2023-09-08T12:19:07;5.88;;;5.28;;
41167;SDS011;26906;45.658;9.272;2023-09-08T12:24:20;8.73;;;5.32;;
41167;SDS011;26906;45.658;9.272;2023-09-08T12:27:06;9.05;;;5.60;;
41167;SDS011;26906;45.658;9.272;2023-09-08T12:29:32;6.93;;;5.53;;
41167;SDS011;26906;45.658;9.272;2023-09-08T12:31:57;7.13;;;6.10;;
41167;SDS011;26906;45.658;9.272;2023-09-08T12:34:23;8.00;;;5.57;;
41167;SDS011;26906;45.658;9.272;2023-09-08T12:36:49;15.93;;;6.20;;
41167;SDS011;26906;45.658;9.272;2023-09-08T12:39:15;10.02;;;6.55;;
41167;SDS011;26906;45.658;9.272;2023-09-08T12:41:40;7.00;;;5.80;;
41167;SDS011;26906;45.658;9.272;2023-09-08T12:44:06;7.10;;;5.20;;
41167;SDS011;26906;45.658;9.272;2023-09-08T12:46:31;11.30;;;6.10;;
41167;SDS011;26906;45.658;9.272;2023-09-08T12:48:59;7.85;;;5.68;;
41167;SDS011;26906;45.658;9.272;2023-09-08T12:51:24;7.70;;;5.28;;
41167;SDS011;26906;45.658;9.272;2023-09-08T12:53:50;8.27;;;5.70;;
41167;SDS011;26906;45.658;9.272;2023-09-08T12:56:15;7.53;;;6.03;;
41167;SDS011;26906;45.658;9.272;2023-09-08T12:58:43;9.13;;;5.50;;
41167;SDS011;26906;45.658;9.272;2023-09-08T13:01:08;11.07;;;6.22;;
41167;SDS011;26906;45.658;9.272;2023-09-08T13:03:34;6.38;;;5.68;;
41167;SDS011;26906;45.658;9.272;2023-09-08T13:05:59;8.82;;;6.43;;
41167;SDS011;26906;45.658;9.272;2023-09-08T13:08:25;8.38;;;6.20;;
41167;SDS011;26906;45.658;9.272;2023-09-08T13:10:51;8.85;;;6.60;;
41167;SDS011;26906;45.658;9.272;2023-09-08T13:13:16;11.40;;;7.47;;
41167;SDS011;26906;45.658;9.272;2023-09-08T13:15:42;7.43;;;6.05;;
41167;SDS011;26906;45.658;9.272;2023-09-08T13:18:08;9.82;;;6.20;;
41167;SDS011;26906;45.658;9.272;2023-09-08T13:20:33;7.60;;;6.38;;
41167;SDS011;26906;45.658;9.272;2023-09-08T13:23:02;8.98;;;6.57;;
41167;SDS011;26906;45.658;9.272;2023-09-08T13:25:28;10.18;;;6.05;;
41167;SDS011;26906;45.658;9.272;2023-09-08T13:27:54;10.27;;;6.13;;
41167;SDS011;26906;45.658;9.272;2023-09-08T13:30:20;9.32;;;5.63;;
41167;SDS011;26906;45.658;9.272;2023-09-08T13:32:51;6.97;;;6.03;;
41167;SDS011;26906;45.658;9.272;2023-09-08T13:35:17;10.82;;;5.88;;
41167;SDS011;26906;45.658;9.272;2023-09-08T13:37:42;9.38;;;5.90;;
41167;SDS011;26906;45.658;9.272;2023-09-08T13:40:08;9.50;;;5.97;;
41167;SDS011;26906;45.658;9.272;2023-09-08T13:42:34;10.85;;;6.32;;
41167;SDS011;26906;45.658;9.272;2023-09-08T13:45:00;6.80;;;5.53;;
41167;SDS011;26906;45.658;9.272;2023-09-08T13:47:26;8.07;;;5.90;;
41167;SDS011;26906;45.658;9.272;2023-09-08T13:49:51;12.05;;;6.00;;
41167;SDS011;26906;45.658;9.272;2023-09-08T13:52:17;9.38;;;6.25;;
41167;SDS011;26906;45.658;9.272;2023-09-08T13:54:43;13.27;;;6.30;;
41167;SDS011;26906;45.658;9.272;2023-09-08T13:57:08;11.95;;;6.18;;
41167;SDS011;26906;45.658;9.272;2023-09-08T13:59:34;14.77;;;6.03;;
41167;SDS011;26906;45.658;9.272;2023-09-08T14:01:59;50.28;;;8.45;;
41167;SDS011;26906;45.658;9.272;2023-09-08T14:04:28;9.63;;;5.63;;
41167;SDS011;26906;45.658;9.272;2023-09-08T14:06:54;15.23;;;6.13;;
41167;SDS011;26906;45.658;9.272;2023-09-08T14:09:20;10.70;;;6.07;;
41167;SDS011;26906;45.658;9.272;2023-09-08T14:11:47;8.23;;;6.28;;
41167;SDS011;26906;45.658;9.272;2023-09-08T14:14:14;12.50;;;6.20;;
41167;SDS011;26906;45.658;9.272;2023-09-08T14:16:41;10.00;;;5.97;;
41167;SDS011;26906;45.658;9.272;2023-09-08T14:19:06;7.50;;;5.43;;
41167;SDS011;26906;45.658;9.272;2023-09-08T14:21:32;8.52;;;5.82;;
41167;SDS011;26906;45.658;9.272;2023-09-08T14:23:58;10.25;;;5.65;;
41167;SDS011;26906;45.658;9.272;2023-09-08T14:26:23;8.75;;;5.82;;
41167;SDS011;26906;45.658;9.272;2023-09-08T14:28:50;6.35;;;5.53;;
41167;SDS011;26906;45.658;9.272;2023-09-08T14:31:16;13.48;;;6.20;;
41167;SDS011;26906;45.658;9.272;2023-09-08T14:33:42;10.93;;;5.93;;
41167;SDS011;26906;45.658;9.272;2023-09-08T14:36:08;8.52;;;6.07;;
41167;SDS011;26906;45.658;9.272;2023-09-08T14:38:34;7.93;;;5.78;;
41167;SDS011;26906;45.658;9.272;2023-09-08T14:41:00;7.95;;;5.55;;
41167;SDS011;26906;45.658;9.272;2023-09-08T14:43:27;8.95;;;5.50;;
41167;SDS011;26906;45.658;9.272;2023-09-08T14:45:55;10.43;;;6.45;;
41167;SDS011;26906;45.658;9.272;2023-09-08T14:48:24;11.32;;;5.80;;
41167;SDS011;26906;45.658;9.272;2023-09-08T14:50:51;8.75;;;5.82;;
41167;SDS011;26906;45.658;9.272;2023-09-08T14:53:18;10.32;;;6.70;;
41167;SDS011;26906;45.658;9.272;2023-09-08T14:55:43;10.32;;;5.60;;
41167;SDS011;26906;45.658;9.272;2023-09-08T14:58:10;9.75;;;6.00;;
41167;SDS011;26906;45.658;9.272;2023-09-08T15:00:39;10.05;;;5.93;;
41167;SDS011;26906;45.658;9.272;2023-09-08T15:03:06;7.50;;;5.65;;
41167;SDS011;26906;45.658;9.272;2023-09-08T15:05:34;7.47;;;5.68;;
41167;SDS011;26906;45.658;9.272;2023-09-08T15:08:00;9.63;;;6.10;;
41167;SDS011;26906;45.658;9.272;2023-09-08T15:10:27;11.27;;;6.30;;
41167;SDS011;26906;45.658;9.272;2023-09-08T15:12:55;6.45;;;5.65;;
41167;SDS011;26906;45.658;9.272;2023-09-08T15:15:21;11.00;;;7.22;;
41167;SDS011;26906;45.658;9.272;2023-09-08T15:17:55;8.75;;;6.50;;
41167;SDS011;26906;45.658;9.272;2023-09-08T15:20:23;10.90;;;6.22;;
41167;SDS011;26906;45.658;9.272;2023-09-08T15:22:49;8.95;;;6.07;;
41167;SDS011;26906;45.658;9.272;2023-09-08T15:25:15;11.02;;;5.68;;
41167;SDS011;26906;45.658;9.272;2023-09-08T15:27:41;11.55;;;5.90;;
41167;SDS011;26906;45.658;9.272;2023-09-08T15:30:08;9.75;;;6.38;;
41167;SDS011;26906;45.658;9.272;2023-09-08T15:32:35;7.45;;;5.68;;
41167;SDS011;26906;45.658;9.272;2023-09-08T15:35:03;13.93;;;7.38;;
41167;SDS011;26906;45.658;9.272;2023-09-08T15:37:30;10.93;;;6.45;;
41167;SDS011;26906;45.658;9.272;2023-09-08T15:39:56;13.15;;;6.65;;
41167;SDS011;26906;45.658;9.272;2023-09-08T15:42:22;10.90;;;6.60;;
41167;SDS011;26906;45.658;9.272;2023-09-08T15:44:47;8.45;;;6.05;;
41167;SDS011;26906;45.658;9.272;2023-09-08T15:47:13;10.13;;;6.78;;
41167;SDS011;26906;45.658;9.272;2023-09-08T15:49:42;8.65;;;6.28;;
41167;SDS011;26906;45.658;9.272;2023-09-08T15:52:08;8.88;;;5.78;;
41167;SDS011;26906;45.658;9.272;2023-09-08T15:54:33;8.77;;;6.10;;
41167;SDS011;26906;45.658;9.272;2023-09-08T15:56:59;9.55;;;6.28;;
41167;SDS011;26906;45.658;9.272;2023-09-08T15:59:26;8.27;;;5.70;;
41167;SDS011;26906;45.658;9.272;2023-09-08T16:01:51;10.10;;;6.15;;
41167;SDS011;26906;45.658;9.272;2023-09-08T16:04:17;8.60;;;6.13;;
41167;SDS011;26906;45.658;9.272;2023-09-08T16:06:43;7.82;;;5.97;;
41167;SDS011;26906;45.658;9.272;2023-09-08T16:09:08;13.35;;;6.07;;
41167;SDS011;26906;45.658;9.272;2023-09-08T16:11:35;8.30;;;5.88;;
41167;SDS011;26906;45.658;9.272;2023-09-08T16:14:01;6.57;;;5.80;;
41167;SDS011;26906;45.658;9.272;2023-09-08T16:16:26;10.15;;;5.57;;
41167;SDS011;26906;45.658;9.272;2023-09-08T16:18:52;8.10;;;5.53;;
41167;SDS011;26906;45.658;9.272;2023-09-08T16:21:18;6.70;;;5.78;;
41167;SDS011;26906;45.658;9.272;2023-09-08T16:23:44;8.02;;;6.43;;
41167;SDS011;26906;45.658;9.272;2023-09-08T16:26:09;10.13;;;6.30;;
41167;SDS011;26906;45.658;9.272;2023-09-08T16:28:35;13.30;;;5.68;;
41167;SDS011;26906;45.658;9.272;2023-09-08T16:31:04;7.80;;;5.90;;
41167;SDS011;26906;45.658;9.272;2023-09-08T16:33:30;11.43;;;6.20;;
41167;SDS011;26906;45.658;9.272;2023-09-08T16:35:56;9.07;;;6.05;;
41167;SDS011;26906;45.658;9.272;2023-09-08T16:38:22;10.00;;;5.90;;
41167;SDS011;26906;45.658;9.272;2023-09-08T16:40:48;10.50;;;6.20;;
41167;SDS011;26906;45.658;9.272;2023-09-08T16:43:15;11.93;;;6.57;;
41167;SDS011;26906;45.658;9.272;2023-09-08T16:45:41;9.02;;;6.57;;
41167;SDS011;26906;45.658;9.272;2023-09-08T16:48:06;10.15;;;6.65;;
41167;SDS011;26906;45.658;9.272;2023-09-08T16:50:32;9.13;;;6.10;;
41167;SDS011;26906;45.658;9.272;2023-09-08T16:52:58;11.30;;;6.18;;
41167;SDS011;26906;45.658;9.272;2023-09-08T16:55:23;11.48;;;6.00;;
41167;SDS011;26906;45.658;9.272;2023-09-08T16:57:49;7.90;;;5.85;;
41167;SDS011;26906;45.658;9.272;2023-09-08T17:00:15;11.55;;;6.05;;
41167;SDS011;26906;45.658;9.272;2023-09-08T17:02:41;11.00;;;6.53;;
41167;SDS011;26906;45.658;9.272;2023-09-08T17:05:07;10.18;;;6.55;;
41167;SDS011;26906;45.658;9.272;2023-09-08T17:07:33;10.38;;;6.32;;
41167;SDS011;26906;45.658;9.272;2023-09-08T17:10:00;12.73;;;7.78;;
41167;SDS011;26906;45.658;9.272;2023-09-08T17:12:27;12.90;;;7.10;;
41167;SDS011;26906;45.658;9.272;2023-09-08T17:14:53;9.98;;;6.63;;
41167;SDS011;26906;45.658;9.272;2023-09-08T17:17:19;7.95;;;6.55;;
41167;SDS011;26906;45.658;9.272;2023-09-08T17:19:45;9.38;;;6.43;;
41167;SDS011;26906;45.658;9.272;2023-09-08T17:22:10;8.45;;;6.90;;
41167;SDS011;26906;45.658;9.272;2023-09-08T17:24:36;10.15;;;6.25;;
41167;SDS011;26906;45.658;9.272;2023-09-08T17:27:02;7.90;;;7.10;;
41167;SDS011;26906;45.658;9.272;2023-09-08T17:29:28;9.38;;;7.03;;
41167;SDS011;26906;45.658;9.272;2023-09-08T17:31:54;7.22;;;6.47;;
41167;SDS011;26906;45.658;9.272;2023-09-08T17:34:20;8.43;;;6.45;;
41167;SDS011;26906;45.658;9.272;2023-09-08T17:36:55;8.45;;;6.93;;
41167;SDS011;26906;45.658;9.272;2023-09-08T17:39:21;9.52;;;6.88;;
41167;SDS011;26906;45.658;9.272;2023-09-08T17:41:47;10.05;;;6.82;;
41167;SDS011;26906;45.658;9.272;2023-09-08T17:44:13;8.07;;;6.35;;
41167;SDS011;26906;45.658;9.272;2023-09-08T17:46:39;9.45;;;6.30;;
41167;SDS011;26906;45.658;9.272;2023-09-08T17:49:04;8.25;;;6.47;;
41167;SDS011;26906;45.658;9.272;2023-09-08T17:51:30;9.98;;;6.60;;
41167;SDS011;26906;45.658;9.272;2023-09-08T17:53:56;9.48;;;6.68;;
41167;SDS011;26906;45.658;9.272;2023-09-08T17:56:21;9.05;;;6.30;;
41167;SDS011;26906;45.658;9.272;2023-09-08T17:58:47;8.30;;;6.38;;
41167;SDS011;26906;45.658;9.272;2023-09-08T18:01:13;10.50;;;6.32;;
41167;SDS011;26906;45.658;9.272;2023-09-08T18:03:40;9.77;;;6.15;;
41167;SDS011;26906;45.658;9.272;2023-09-08T18:06:06;9.65;;;6.07;;
41167;SDS011;26906;45.658;9.272;2023-09-08T18:08:34;7.15;;;6.25;;
41167;SDS011;26906;45.658;9.272;2023-09-08T18:11:01;11.88;;;6.03;;
41167;SDS011;26906;45.658;9.272;2023-09-08T18:13:28;7.60;;;5.80;;
41167;SDS011;26906;45.658;9.272;2023-09-08T18:16:00;10.95;;;6.47;;
41167;SDS011;26906;45.658;9.272;2023-09-08T18:18:30;9.68;;;6.22;;
41167;SDS011;26906;45.658;9.272;2023-09-08T18:20:57;8.43;;;6.18;;
41167;SDS011;26906;45.658;9.272;2023-09-08T18:23:23;7.93;;;6.03;;
41167;SDS011;26906;45.658;9.272;2023-09-08T18:25:49;7.43;;;5.93;;
41167;SDS011;26906;45.658;9.272;2023-09-08T18:28:14;8.20;;;5.85;;
41167;SDS011;26906;45.658;9.272;2023-09-08T18:30:44;7.35;;;5.88;;
41167;SDS011;26906;45.658;9.272;2023-09-08T18:33:10;7.07;;;6.18;;
41167;SDS011;26906;45.658;9.272;2023-09-08T18:35:35;12.63;;;5.95;;
41167;SDS011;26906;45.658;9.272;2023-09-08T18:38:01;8.38;;;5.75;;
41167;SDS011;26906;45.658;9.272;2023-09-08T18:40:27;7.93;;;6.10;;
41167;SDS011;26906;45.658;9.272;2023-09-08T18:42:54;9.55;;;6.00;;
41167;SDS011;26906;45.658;9.272;2023-09-08T18:45:20;6.10;;;5.50;;
41167;SDS011;26906;45.658;9.272;2023-09-08T18:47:46;10.18;;;6.40;;
41167;SDS011;26906;45.658;9.272;2023-09-08T18:50:11;9.80;;;5.97;;
41167;SDS011;26906;45.658;9.272;2023-09-08T18:52:37;7.57;;;6.03;;
41167;SDS011;26906;45.658;9.272;2023-09-08T18:55:03;6.80;;;5.60;;
41167;SDS011;26906;45.658;9.272;2023-09-08T18:57:29;7.70;;;5.90;;
41167;SDS011;26906;45.658;9.272;2023-09-08T18:59:55;7.22;;;5.93;;
41167;SDS011;26906;45.658;9.272;2023-09-08T19:02:21;7.82;;;6.00;;
41167;SDS011;26906;45.658;9.272;2023-09-08T19:04:48;10.65;;;6.43;;
41167;SDS011;26906;45.658;9.272;2023-09-08T19:07:15;9.60;;;6.30;;
41167;SDS011;26906;45.658;9.272;2023-09-08T19:09:41;8.30;;;6.25;;
41167;SDS011;26906;45.658;9.272;2023-09-08T19:12:07;7.30;;;6.47;;
41167;SDS011;26906;45.658;9.272;2023-09-08T19:14:33;10.75;;;7.13;;
41167;SDS011;26906;45.658;9.272;2023-09-08T19:16:59;8.20;;;6.60;;
41167;SDS011;26906;45.658;9.272;2023-09-08T19:19:28;9.40;;;6.50;;
41167;SDS011;26906;45.658;9.272;2023-09-08T19:21:55;10.07;;;6.57;;
41167;SDS011;26906;45.658;9.272;2023-09-08T19:24:22;7.68;;;6.55;;
41167;SDS011;26906;45.658;9.272;2023-09-08T19:26:50;11.85;;;6.03;;
41167;SDS011;26906;45.658;9.272;2023-09-08T19:29:15;7.10;;;6.40;;
41167;SDS011;26906;45.658;9.272;2023-09-08T19:31:43;10.02;;;6.35;;
41167;SDS011;26906;45.658;9.272;2023-09-08T19:34:09;9.95;;;6.22;;
41167;SDS011;26906;45.658;9.272;2023-09-08T19:36:36;7.57;;;6.30;;
41167;SDS011;26906;45.658;9.272;2023-09-08T19:39:03;11.43;;;6.70;;
41167;SDS011;26906;45.658;9.272;2023-09-08T19:41:29;7.60;;;6.20;;
41167;SDS011;26906;45.658;9.272;2023-09-08T19:43:55;9.05;;;6.78;;
41167;SDS011;26906;45.658;9.272;2023-09-08T19:46:21;7.90;;;6.63;;
41167;SDS011;26906;45.658;9.272;2023-09-08T19:48:47;7.20;;;6.40;;
41167;SDS011;26906;45.658;9.272;2023-09-08T19:51:13;11.98;;;6.53;;
41167;SDS011;26906;45.658;9.272;2023-09-08T19:53:39;7.63;;;6.75;;
41167;SDS011;26906;45.658;9.272;2023-09-08T19:56:05;7.68;;;6.88;;
41167;SDS011;26906;45.658;9.272;2023-09-08T19:58:31;9.52;;;7.28;;
41167;SDS011;26906;45.658;9.272;2023-09-08T20:01:04;11.73;;;6.65;;
41167;SDS011;26906;45.658;9.272;2023-09-08T20:03:32;9.27;;;6.50;;
41167;SDS011;26906;45.658;9.272;2023-09-08T20:05:58;8.55;;;7.15;;
41167;SDS011;26906;45.658;9.272;2023-09-08T20:08:24;8.75;;;6.35;;
41167;SDS011;26906;45.658;9.272;2023-09-08T20:10:50;8.80;;;7.00;;
41167;SDS011;26906;45.658;9.272;2023-09-08T20:13:18;10.27;;;6.80;;
41167;SDS011;26906;45.658;9.272;2023-09-08T20:15:44;10.30;;;6.97;;
41167;SDS011;26906;45.658;9.272;2023-09-08T20:18:10;8.32;;;7.07;;
